createdAt,value
2022-12-01T00:01:37.059Z,5.04
2022-12-01T00:12:16.139Z,5.01
2022-12-01T00:17:35.420Z,4.98
2022-12-01T00:28:13.957Z,5
2022-12-01T00:33:33.580Z,4.96
2022-12-01T00:38:53.235Z,4.96
2022-12-01T00:44:12.770Z,4.96
2022-12-01T01:00:09.569Z,4.94
2022-12-01T01:10:47.819Z,4.94
2022-12-01T01:16:07.302Z,4.94
2022-12-01T01:26:46.288Z,4.92
2022-12-01T01:32:06.081Z,4.92
2022-12-01T01:37:25.371Z,4.94
2022-12-01T01:42:44.850Z,4.91
2022-12-01T01:53:23.254Z,4.94
2022-12-01T01:58:42.804Z,4.91
2022-12-01T02:04:02.243Z,4.94
2022-12-01T02:09:21.414Z,4.92
2022-12-01T02:14:40.861Z,4.92
2022-12-01T02:19:59.962Z,4.92
2022-12-01T02:30:39.353Z,4.9
2022-12-01T02:35:58.144Z,4.91
2022-12-01T02:46:37.374Z,4.9
2022-12-01T02:51:56.772Z,4.9
2022-12-01T03:02:35.833Z,4.9
2022-12-01T03:13:13.909Z,4.88
2022-12-01T03:18:33.373Z,4.88
2022-12-01T03:29:11.646Z,4.9
2022-12-01T03:34:31.282Z,4.9
2022-12-01T03:45:10.421Z,4.9
2022-12-01T04:01:09.276Z,4.9
2022-12-01T04:11:47.589Z,4.9
2022-12-01T04:17:07.461Z,4.9
2022-12-01T04:27:46.333Z,4.9
2022-12-01T04:33:05.740Z,4.91
2022-12-01T04:43:44.730Z,4.88
2022-12-01T04:54:23.585Z,4.88
2022-12-01T04:59:42.633Z,4.88
2022-12-01T05:10:21.222Z,4.87
2022-12-01T05:15:40.809Z,4.87
2022-12-01T05:26:19.102Z,4.87
2022-12-01T05:31:38.437Z,4.85
2022-12-01T05:37:22.386Z,4.94
2022-12-01T05:42:41.224Z,4.87
2022-12-01T05:53:19.134Z,4.87
2022-12-01T05:58:37.968Z,4.88
2022-12-01T06:09:16.393Z,4.87
2022-12-01T06:14:35.411Z,4.88
2022-12-01T06:25:22.772Z,4.88
2022-12-01T06:30:34.095Z,4.87
2022-12-01T06:41:12.303Z,4.87
2022-12-01T06:51:51.037Z,4.87
2022-12-01T06:57:10.733Z,4.87
2022-12-01T07:07:52.710Z,4.84
2022-12-01T07:23:48.742Z,4.83
2022-12-01T07:39:46.096Z,4.85
2022-12-01T07:50:24.635Z,4.88
2022-12-01T07:55:44.061Z,4.85
2022-12-01T08:06:23.028Z,4.88
2022-12-01T08:22:21.549Z,4.88
2022-12-01T08:32:59.683Z,4.92
2022-12-01T08:38:18.789Z,4.92
2022-12-01T08:48:58.389Z,4.98
2022-12-01T08:59:36.769Z,5.01
2022-12-01T09:10:15.279Z,5.05
2022-12-01T09:15:34.639Z,5.11
2022-12-01T09:26:13.897Z,5.13
2022-12-01T09:42:10.743Z,5.24
2022-12-01T09:52:49.034Z,5.28
2022-12-01T09:58:08.776Z,5.32
2022-12-01T10:03:28.342Z,5.34
2022-12-01T10:08:47.792Z,5.39
2022-12-01T10:24:45.711Z,5.52
2022-12-01T10:35:23.901Z,5.6
2022-12-01T10:40:43.177Z,5.7
2022-12-01T10:51:22.277Z,5.76
2022-12-01T11:02:00.823Z,5.85
2022-12-01T11:07:20.204Z,5.86
2022-12-01T11:23:18.820Z,5.95
2022-12-01T11:33:57.238Z,5.99
2022-12-01T11:39:16.097Z,6.05
2022-12-01T11:49:54.372Z,6.13
2022-12-01T11:55:13.372Z,6.17
2022-12-01T12:00:33.060Z,6.2
2022-12-01T12:05:52.781Z,6.26
2022-12-01T12:16:32.125Z,6.4
2022-12-01T12:21:50.349Z,6.44
2022-12-01T12:27:09.894Z,6.48
2022-12-01T12:32:29.456Z,6.53
2022-12-01T12:48:27.189Z,6.6
2022-12-01T13:04:25.006Z,6.67
2022-12-01T13:15:02.732Z,6.73
2022-12-01T13:30:59.926Z,6.76
2022-12-01T13:46:58.082Z,6.77
2022-12-01T13:57:37.153Z,6.8
2022-12-01T14:02:56.877Z,6.78
2022-12-01T14:08:19.649Z,6.8
2022-12-01T14:13:34.688Z,6.77
2022-12-01T14:24:13.374Z,6.77
2022-12-01T14:29:32.875Z,6.78
2022-12-01T14:40:12.391Z,6.77
2022-12-01T14:45:30.769Z,6.76
2022-12-01T14:50:50.185Z,6.74
2022-12-01T14:56:09.028Z,6.71
2022-12-01T15:01:28.676Z,6.68
2022-12-01T15:06:47.570Z,6.7
2022-12-01T15:12:06.783Z,6.68
2022-12-01T15:22:45.111Z,6.64
2022-12-01T15:28:04.511Z,6.63
2022-12-01T15:38:42.814Z,6.6
2022-12-01T15:44:02.318Z,6.58
2022-12-01T15:49:21.943Z,6.54
2022-12-01T16:05:19.800Z,6.51
2022-12-01T16:15:58.378Z,6.48
2022-12-01T16:21:17.802Z,6.44
2022-12-01T16:32:19.120Z,6.44
2022-12-01T16:47:53.579Z,6.41
2022-12-01T16:58:32.738Z,6.4
2022-12-01T17:03:53.183Z,6.36
2022-12-01T17:09:12.785Z,6.34
2022-12-01T17:14:31.121Z,6.33
2022-12-01T17:19:50.373Z,6.32
2022-12-01T17:30:29.318Z,6.32
2022-12-01T17:35:48.463Z,6.29
2022-12-01T17:41:07.517Z,6.29
2022-12-01T17:46:26.898Z,6.27
2022-12-01T17:57:05.332Z,6.24
2022-12-01T18:13:03.241Z,6.2
2022-12-01T18:29:00.650Z,6.14
2022-12-01T18:39:39.196Z,6.13
2022-12-01T18:44:58.671Z,6.1
2022-12-01T18:55:37.275Z,6.07
2022-12-01T19:06:16.046Z,6.03
2022-12-01T19:11:34.828Z,6.05
2022-12-01T19:22:12.802Z,6.02
2022-12-01T19:27:32.232Z,6.02
2022-12-01T19:38:10.901Z,5.99
2022-12-01T19:43:30.292Z,6
2022-12-01T19:54:09.585Z,5.98
2022-12-01T20:04:48.565Z,5.93
2022-12-01T20:10:07.600Z,5.93
2022-12-01T20:20:46.689Z,5.92
2022-12-01T20:36:44.564Z,5.88
2022-12-01T20:52:42.470Z,5.88
2022-12-01T20:58:01.352Z,5.86
2022-12-01T21:03:20.965Z,5.85
2022-12-01T21:08:40.424Z,5.85
2022-12-01T21:19:18.985Z,5.82
2022-12-01T21:24:43.308Z,5.78
2022-12-01T21:29:57.272Z,5.79
2022-12-01T21:35:16.193Z,5.82
2022-12-01T21:45:55.147Z,5.78
2022-12-01T21:51:14.736Z,5.78
2022-12-01T21:56:34.123Z,5.78
2022-12-01T22:01:53.271Z,5.76
2022-12-01T22:07:22.669Z,5.75
2022-12-01T22:17:51.162Z,5.73
2022-12-01T22:28:29.453Z,5.7
2022-12-01T22:39:09.254Z,5.72
2022-12-01T22:55:07.505Z,5.7
2022-12-01T23:05:47.443Z,5.7
2022-12-01T23:11:05.966Z,5.69
2022-12-01T23:27:29.253Z,5.69
2022-12-01T23:38:07.607Z,5.69
2022-12-01T23:43:26.862Z,5.66
2022-12-01T23:54:06.145Z,5.68
2022-12-01T23:59:25.123Z,5.65
